sensor_id;sensor_type;location;lat;lon;timestamp;P1;durP1;ratioP1;P2;durP2;ratioP2
22435;SDS011;11385;50.822;4.324;2023-08-12T00:02:00;9.30;;;4.47;;
22435;SDS011;11385;50.822;4.324;2023-08-12T00:04:26;13.53;;;4.95;;
22435;SDS011;11385;50.822;4.324;2023-08-12T00:06:53;10.15;;;4.75;;
22435;SDS011;11385;50.822;4.324;2023-08-12T00:09:20;13.50;;;5.22;;
22435;SDS011;11385;50.822;4.324;2023-08-12T00:11:47;10.30;;;5.28;;
22435;SDS011;11385;50.822;4.324;2023-08-12T00:14:13;9.33;;;4.60;;
22435;SDS011;11385;50.822;4.324;2023-08-12T00:16:40;11.65;;;5.25;;
22435;SDS011;11385;50.822;4.324;2023-08-12T00:19:06;11.75;;;5.15;;
22435;SDS011;11385;50.822;4.324;2023-08-12T00:21:34;11.33;;;4.40;;
22435;SDS011;11385;50.822;4.324;2023-08-12T00:24:00;7.83;;;4.33;;
22435;SDS011;11385;50.822;4.324;2023-08-12T00:26:27;10.32;;;4.33;;
22435;SDS011;11385;50.822;4.324;2023-08-12T00:28:53;11.10;;;4.92;;
22435;SDS011;11385;50.822;4.324;2023-08-12T00:31:20;11.05;;;4.90;;
22435;SDS011;11385;50.822;4.324;2023-08-12T00:33:46;10.63;;;4.60;;
22435;SDS011;11385;50.822;4.324;2023-08-12T00:36:13;9.90;;;4.15;;
22435;SDS011;11385;50.822;4.324;2023-08-12T00:38:40;8.15;;;4.35;;
22435;SDS011;11385;50.822;4.324;2023-08-12T00:41:06;11.28;;;5.22;;
22435;SDS011;11385;50.822;4.324;2023-08-12T00:43:33;9.73;;;4.78;;
22435;SDS011;11385;50.822;4.324;2023-08-12T00:46:00;10.30;;;5.10;;
22435;SDS011;11385;50.822;4.324;2023-08-12T00:48:26;10.60;;;4.62;;
22435;SDS011;11385;50.822;4.324;2023-08-12T00:50:53;8.70;;;4.85;;
22435;SDS011;11385;50.822;4.324;2023-08-12T00:53:20;19.20;;;8.08;;
22435;SDS011;11385;50.822;4.324;2023-08-12T00:55:47;12.23;;;5.17;;
22435;SDS011;11385;50.822;4.324;2023-08-12T00:58:13;12.23;;;5.17;;
22435;SDS011;11385;50.822;4.324;2023-08-12T01:00:41;12.88;;;5.42;;
22435;SDS011;11385;50.822;4.324;2023-08-12T01:03:08;11.20;;;5.22;;
22435;SDS011;11385;50.822;4.324;2023-08-12T01:05:35;11.70;;;5.37;;
22435;SDS011;11385;50.822;4.324;2023-08-12T01:08:02;12.58;;;4.80;;
22435;SDS011;11385;50.822;4.324;2023-08-12T01:10:31;11.15;;;5.47;;
22435;SDS011;11385;50.822;4.324;2023-08-12T01:13:05;12.00;;;5.10;;
22435;SDS011;11385;50.822;4.324;2023-08-12T01:15:33;14.47;;;5.85;;
22435;SDS011;11385;50.822;4.324;2023-08-12T01:18:00;10.25;;;6.20;;
22435;SDS011;11385;50.822;4.324;2023-08-12T01:20:28;10.35;;;6.15;;
22435;SDS011;11385;50.822;4.324;2023-08-12T01:22:57;14.68;;;6.50;;
22435;SDS011;11385;50.822;4.324;2023-08-12T01:25:34;14.75;;;6.50;;
22435;SDS011;11385;50.822;4.324;2023-08-12T01:28:01;12.82;;;6.70;;
22435;SDS011;11385;50.822;4.324;2023-08-12T01:30:27;13.43;;;6.53;;
22435;SDS011;11385;50.822;4.324;2023-08-12T01:32:56;14.68;;;6.83;;
22435;SDS011;11385;50.822;4.324;2023-08-12T01:35:26;11.97;;;6.90;;
22435;SDS011;11385;50.822;4.324;2023-08-12T01:37:58;14.38;;;6.67;;
22435;SDS011;11385;50.822;4.324;2023-08-12T01:40:28;11.93;;;6.28;;
22435;SDS011;11385;50.822;4.324;2023-08-12T01:42:57;14.55;;;6.42;;
22435;SDS011;11385;50.822;4.324;2023-08-12T01:45:24;12.47;;;6.50;;
22435;SDS011;11385;50.822;4.324;2023-08-12T01:47:51;10.25;;;6.50;;
22435;SDS011;11385;50.822;4.324;2023-08-12T01:50:18;12.35;;;6.30;;
22435;SDS011;11385;50.822;4.324;2023-08-12T01:52:47;12.88;;;6.28;;
22435;SDS011;11385;50.822;4.324;2023-08-12T01:55:13;12.15;;;6.50;;
22435;SDS011;11385;50.822;4.324;2023-08-12T01:57:40;11.75;;;6.33;;
22435;SDS011;11385;50.822;4.324;2023-08-12T02:00:07;13.80;;;6.72;;
22435;SDS011;11385;50.822;4.324;2023-08-12T02:02:34;12.85;;;6.53;;
22435;SDS011;11385;50.822;4.324;2023-08-12T02:05:00;10.13;;;6.60;;
22435;SDS011;11385;50.822;4.324;2023-08-12T02:07:27;12.43;;;6.90;;
22435;SDS011;11385;50.822;4.324;2023-08-12T02:09:54;10.50;;;6.45;;
22435;SDS011;11385;50.822;4.324;2023-08-12T02:12:20;11.25;;;6.67;;
22435;SDS011;11385;50.822;4.324;2023-08-12T02:14:47;15.13;;;6.47;;
22435;SDS011;11385;50.822;4.324;2023-08-12T02:17:13;11.65;;;7.10;;
22435;SDS011;11385;50.822;4.324;2023-08-12T02:19:40;13.15;;;7.72;;
22435;SDS011;11385;50.822;4.324;2023-08-12T02:22:07;13.43;;;6.78;;
22435;SDS011;11385;50.822;4.324;2023-08-12T02:24:33;11.85;;;7.05;;
22435;SDS011;11385;50.822;4.324;2023-08-12T02:27:01;12.37;;;7.55;;
22435;SDS011;11385;50.822;4.324;2023-08-12T02:29:27;14.38;;;8.28;;
22435;SDS011;11385;50.822;4.324;2023-08-12T02:31:54;16.07;;;8.10;;
22435;SDS011;11385;50.822;4.324;2023-08-12T02:34:21;11.78;;;7.75;;
22435;SDS011;11385;50.822;4.324;2023-08-12T02:36:47;13.15;;;7.78;;
22435;SDS011;11385;50.822;4.324;2023-08-12T02:39:14;14.98;;;8.48;;
22435;SDS011;11385;50.822;4.324;2023-08-12T02:41:42;36.33;;;26.73;;
22435;SDS011;11385;50.822;4.324;2023-08-12T02:44:09;15.48;;;8.38;;
22435;SDS011;11385;50.822;4.324;2023-08-12T02:46:35;15.58;;;9.05;;
22435;SDS011;11385;50.822;4.324;2023-08-12T02:49:03;16.05;;;8.50;;
22435;SDS011;11385;50.822;4.324;2023-08-12T02:51:29;18.42;;;9.60;;
22435;SDS011;11385;50.822;4.324;2023-08-12T02:53:56;15.80;;;8.80;;
22435;SDS011;11385;50.822;4.324;2023-08-12T02:56:23;13.20;;;8.10;;
22435;SDS011;11385;50.822;4.324;2023-08-12T02:58:49;15.30;;;8.78;;
22435;SDS011;11385;50.822;4.324;2023-08-12T03:01:16;16.05;;;9.70;;
22435;SDS011;11385;50.822;4.324;2023-08-12T03:03:43;16.27;;;8.73;;
22435;SDS011;11385;50.822;4.324;2023-08-12T03:06:10;13.28;;;9.00;;
22435;SDS011;11385;50.822;4.324;2023-08-12T03:08:37;12.33;;;9.05;;
22435;SDS011;11385;50.822;4.324;2023-08-12T03:11:04;13.93;;;9.38;;
22435;SDS011;11385;50.822;4.324;2023-08-12T03:13:31;20.32;;;9.88;;
22435;SDS011;11385;50.822;4.324;2023-08-12T03:15:57;22.10;;;11.40;;
22435;SDS011;11385;50.822;4.324;2023-08-12T03:18:24;23.10;;;10.90;;
22435;SDS011;11385;50.822;4.324;2023-08-12T03:20:50;25.12;;;12.20;;
22435;SDS011;11385;50.822;4.324;2023-08-12T03:23:17;22.85;;;11.90;;
22435;SDS011;11385;50.822;4.324;2023-08-12T03:25:44;18.77;;;12.33;;
22435;SDS011;11385;50.822;4.324;2023-08-12T03:28:14;19.45;;;11.48;;
22435;SDS011;11385;50.822;4.324;2023-08-12T03:30:42;22.05;;;11.73;;
22435;SDS011;11385;50.822;4.324;2023-08-12T03:33:19;20.27;;;11.70;;
22435;SDS011;11385;50.822;4.324;2023-08-12T03:35:46;23.65;;;12.88;;
22435;SDS011;11385;50.822;4.324;2023-08-12T03:38:13;20.75;;;11.95;;
22435;SDS011;11385;50.822;4.324;2023-08-12T03:40:40;33.25;;;13.62;;
22435;SDS011;11385;50.822;4.324;2023-08-12T03:43:08;22.90;;;12.78;;
22435;SDS011;11385;50.822;4.324;2023-08-12T03:45:39;17.85;;;12.10;;
22435;SDS011;11385;50.822;4.324;2023-08-12T03:48:07;19.05;;;10.95;;
22435;SDS011;11385;50.822;4.324;2023-08-12T03:50:34;16.12;;;10.28;;
22435;SDS011;11385;50.822;4.324;2023-08-12T03:53:04;14.80;;;11.25;;
22435;SDS011;11385;50.822;4.324;2023-08-12T03:55:32;17.37;;;10.58;;
22435;SDS011;11385;50.822;4.324;2023-08-12T03:57:59;17.42;;;11.03;;
22435;SDS011;11385;50.822;4.324;2023-08-12T04:00:26;17.75;;;10.48;;
22435;SDS011;11385;50.822;4.324;2023-08-12T04:02:53;16.30;;;11.95;;
22435;SDS011;11385;50.822;4.324;2023-08-12T04:05:20;15.28;;;10.40;;
22435;SDS011;11385;50.822;4.324;2023-08-12T04:07:47;18.52;;;10.78;;
22435;SDS011;11385;50.822;4.324;2023-08-12T04:10:14;14.05;;;9.93;;
22435;SDS011;11385;50.822;4.324;2023-08-12T04:12:41;16.02;;;11.00;;
22435;SDS011;11385;50.822;4.324;2023-08-12T04:15:08;16.30;;;10.00;;
22435;SDS011;11385;50.822;4.324;2023-08-12T04:17:36;11.73;;;8.95;;
22435;SDS011;11385;50.822;4.324;2023-08-12T04:20:05;13.13;;;10.03;;
22435;SDS011;11385;50.822;4.324;2023-08-12T04:22:33;16.35;;;10.30;;
22435;SDS011;11385;50.822;4.324;2023-08-12T04:25:00;18.17;;;9.93;;
22435;SDS011;11385;50.822;4.324;2023-08-12T04:27:27;12.82;;;9.70;;
22435;SDS011;11385;50.822;4.324;2023-08-12T04:29:53;17.35;;;9.65;;
22435;SDS011;11385;50.822;4.324;2023-08-12T04:32:20;15.48;;;10.93;;
22435;SDS011;11385;50.822;4.324;2023-08-12T04:34:47;15.65;;;10.35;;
22435;SDS011;11385;50.822;4.324;2023-08-12T04:37:14;17.32;;;10.00;;
22435;SDS011;11385;50.822;4.324;2023-08-12T04:39:41;11.50;;;8.90;;
22435;SDS011;11385;50.822;4.324;2023-08-12T04:42:08;13.18;;;9.53;;
22435;SDS011;11385;50.822;4.324;2023-08-12T04:44:34;13.15;;;9.10;;
22435;SDS011;11385;50.822;4.324;2023-08-12T04:47:01;9.38;;;8.13;;
22435;SDS011;11385;50.822;4.324;2023-08-12T04:49:28;12.05;;;8.08;;
22435;SDS011;11385;50.822;4.324;2023-08-12T04:51:55;9.43;;;7.17;;
22435;SDS011;11385;50.822;4.324;2023-08-12T04:54:22;9.55;;;7.83;;
22435;SDS011;11385;50.822;4.324;2023-08-12T04:56:49;10.30;;;7.97;;
22435;SDS011;11385;50.822;4.324;2023-08-12T04:59:15;9.38;;;7.37;;
22435;SDS011;11385;50.822;4.324;2023-08-12T05:01:42;15.63;;;8.00;;
22435;SDS011;11385;50.822;4.324;2023-08-12T05:04:08;9.50;;;8.15;;
22435;SDS011;11385;50.822;4.324;2023-08-12T05:06:35;10.75;;;8.48;;
22435;SDS011;11385;50.822;4.324;2023-08-12T05:09:02;11.68;;;9.45;;
22435;SDS011;11385;50.822;4.324;2023-08-12T05:11:29;11.73;;;9.50;;
22435;SDS011;11385;50.822;4.324;2023-08-12T05:13:56;11.73;;;9.30;;
22435;SDS011;11385;50.822;4.324;2023-08-12T05:16:22;12.55;;;9.55;;
22435;SDS011;11385;50.822;4.324;2023-08-12T05:18:49;11.55;;;9.85;;
22435;SDS011;11385;50.822;4.324;2023-08-12T05:21:15;12.73;;;10.25;;
22435;SDS011;11385;50.822;4.324;2023-08-12T05:23:42;18.10;;;10.85;;
22435;SDS011;11385;50.822;4.324;2023-08-12T05:26:08;13.50;;;11.40;;
22435;SDS011;11385;50.822;4.324;2023-08-12T05:28:35;13.62;;;11.15;;
22435;SDS011;11385;50.822;4.324;2023-08-12T05:31:02;14.65;;;12.40;;
22435;SDS011;11385;50.822;4.324;2023-08-12T05:33:28;17.15;;;13.22;;
22435;SDS011;11385;50.822;4.324;2023-08-12T05:35:55;15.38;;;12.65;;
22435;SDS011;11385;50.822;4.324;2023-08-12T05:38:22;15.55;;;12.45;;
22435;SDS011;11385;50.822;4.324;2023-08-12T05:40:48;18.73;;;13.08;;
22435;SDS011;11385;50.822;4.324;2023-08-12T05:43:15;16.12;;;12.88;;
22435;SDS011;11385;50.822;4.324;2023-08-12T05:45:41;17.57;;;12.70;;
22435;SDS011;11385;50.822;4.324;2023-08-12T05:48:08;14.55;;;12.33;;
22435;SDS011;11385;50.822;4.324;2023-08-12T05:50:35;17.02;;;13.32;;
22435;SDS011;11385;50.822;4.324;2023-08-12T05:53:01;15.80;;;12.95;;
22435;SDS011;11385;50.822;4.324;2023-08-12T05:55:28;14.78;;;12.73;;
22435;SDS011;11385;50.822;4.324;2023-08-12T05:57:54;18.87;;;13.45;;
22435;SDS011;11385;50.822;4.324;2023-08-12T06:00:21;20.52;;;12.43;;
22435;SDS011;11385;50.822;4.324;2023-08-12T06:02:48;17.90;;;13.30;;
22435;SDS011;11385;50.822;4.324;2023-08-12T06:05:14;13.22;;;10.95;;
22435;SDS011;11385;50.822;4.324;2023-08-12T06:07:41;15.65;;;12.05;;
22435;SDS011;11385;50.822;4.324;2023-08-12T06:10:08;16.37;;;11.93;;
22435;SDS011;11385;50.822;4.324;2023-08-12T06:12:34;15.30;;;11.95;;
22435;SDS011;11385;50.822;4.324;2023-08-12T06:15:01;13.43;;;11.22;;
22435;SDS011;11385;50.822;4.324;2023-08-12T06:17:28;14.47;;;10.93;;
22435;SDS011;11385;50.822;4.324;2023-08-12T06:19:54;16.45;;;11.00;;
22435;SDS011;11385;50.822;4.324;2023-08-12T06:22:21;13.72;;;10.60;;
22435;SDS011;11385;50.822;4.324;2023-08-12T06:24:47;14.00;;;10.55;;
22435;SDS011;11385;50.822;4.324;2023-08-12T06:27:14;13.90;;;10.20;;
22435;SDS011;11385;50.822;4.324;2023-08-12T06:29:41;17.20;;;11.55;;
22435;SDS011;11385;50.822;4.324;2023-08-12T06:32:07;14.28;;;10.32;;
22435;SDS011;11385;50.822;4.324;2023-08-12T06:34:34;12.47;;;10.10;;
22435;SDS011;11385;50.822;4.324;2023-08-12T06:37:01;14.13;;;9.53;;
22435;SDS011;11385;50.822;4.324;2023-08-12T06:39:27;12.63;;;9.50;;
22435;SDS011;11385;50.822;4.324;2023-08-12T06:41:54;10.58;;;9.00;;
22435;SDS011;11385;50.822;4.324;2023-08-12T06:44:21;10.75;;;7.97;;
22435;SDS011;11385;50.822;4.324;2023-08-12T06:46:47;13.28;;;8.40;;
22435;SDS011;11385;50.822;4.324;2023-08-12T06:49:14;10.72;;;7.30;;
22435;SDS011;11385;50.822;4.324;2023-08-12T06:51:42;10.50;;;7.12;;
22435;SDS011;11385;50.822;4.324;2023-08-12T06:54:08;11.83;;;8.13;;
22435;SDS011;11385;50.822;4.324;2023-08-12T06:56:35;13.30;;;6.78;;
22435;SDS011;11385;50.822;4.324;2023-08-12T06:59:02;8.38;;;5.50;;
22435;SDS011;11385;50.822;4.324;2023-08-12T07:01:28;5.58;;;3.98;;
22435;SDS011;11385;50.822;4.324;2023-08-12T07:03:55;5.97;;;3.80;;
22435;SDS011;11385;50.822;4.324;2023-08-12T07:06:22;5.05;;;3.75;;
22435;SDS011;11385;50.822;4.324;2023-08-12T07:08:48;19.20;;;17.25;;
22435;SDS011;11385;50.822;4.324;2023-08-12T07:11:15;7.05;;;5.72;;
22435;SDS011;11385;50.822;4.324;2023-08-12T07:13:42;10.85;;;8.55;;
22435;SDS011;11385;50.822;4.324;2023-08-12T07:16:10;12.75;;;11.45;;
22435;SDS011;11385;50.822;4.324;2023-08-12T07:18:37;15.03;;;12.82;;
22435;SDS011;11385;50.822;4.324;2023-08-12T07:21:04;15.70;;;13.65;;
22435;SDS011;11385;50.822;4.324;2023-08-12T07:23:30;14.35;;;12.80;;
22435;SDS011;11385;50.822;4.324;2023-08-12T07:25:57;14.45;;;12.98;;
22435;SDS011;11385;50.822;4.324;2023-08-12T07:28:24;15.70;;;14.10;;
22435;SDS011;11385;50.822;4.324;2023-08-12T07:30:50;16.65;;;14.87;;
22435;SDS011;11385;50.822;4.324;2023-08-12T07:33:19;18.25;;;16.20;;
22435;SDS011;11385;50.822;4.324;2023-08-12T07:35:47;19.30;;;17.37;;
22435;SDS011;11385;50.822;4.324;2023-08-12T07:38:14;20.32;;;16.87;;
22435;SDS011;11385;50.822;4.324;2023-08-12T07:40:40;20.32;;;18.12;;
22435;SDS011;11385;50.822;4.324;2023-08-12T07:43:07;19.32;;;17.42;;
22435;SDS011;11385;50.822;4.324;2023-08-12T07:45:33;20.82;;;18.25;;
22435;SDS011;11385;50.822;4.324;2023-08-12T07:48:00;19.45;;;17.55;;
22435;SDS011;11385;50.822;4.324;2023-08-12T07:50:27;19.27;;;17.35;;
22435;SDS011;11385;50.822;4.324;2023-08-12T07:52:53;20.35;;;18.45;;
22435;SDS011;11385;50.822;4.324;2023-08-12T07:55:20;19.25;;;16.80;;
22435;SDS011;11385;50.822;4.324;2023-08-12T07:57:46;21.48;;;19.37;;
22435;SDS011;11385;50.822;4.324;2023-08-12T08:00:13;21.55;;;18.17;;
22435;SDS011;11385;50.822;4.324;2023-08-12T08:02:40;26.12;;;23.67;;
22435;SDS011;11385;50.822;4.324;2023-08-12T08:05:07;14.58;;;13.18;;
22435;SDS011;11385;50.822;4.324;2023-08-12T08:07:34;13.98;;;12.05;;
22435;SDS011;11385;50.822;4.324;2023-08-12T08:10:01;11.73;;;10.35;;
22435;SDS011;11385;50.822;4.324;2023-08-12T08:12:28;12.18;;;10.15;;
22435;SDS011;11385;50.822;4.324;2023-08-12T08:14:55;9.05;;;8.08;;
22435;SDS011;11385;50.822;4.324;2023-08-12T08:17:21;7.95;;;7.10;;
22435;SDS011;11385;50.822;4.324;2023-08-12T08:19:48;8.28;;;7.47;;
22435;SDS011;11385;50.822;4.324;2023-08-12T08:22:15;7.40;;;4.90;;
22435;SDS011;11385;50.822;4.324;2023-08-12T08:24:41;5.70;;;3.98;;
22435;SDS011;11385;50.822;4.324;2023-08-12T08:27:08;5.35;;;3.85;;
22435;SDS011;11385;50.822;4.324;2023-08-12T08:29:35;7.97;;;4.22;;
22435;SDS011;11385;50.822;4.324;2023-08-12T08:32:01;5.67;;;3.50;;
22435;SDS011;11385;50.822;4.324;2023-08-12T08:34:28;4.17;;;2.58;;
22435;SDS011;11385;50.822;4.324;2023-08-12T08:36:54;7.15;;;2.67;;
22435;SDS011;11385;50.822;4.324;2023-08-12T08:39:21;5.45;;;2.30;;
22435;SDS011;11385;50.822;4.324;2023-08-12T08:41:48;4.12;;;1.95;;
22435;SDS011;11385;50.822;4.324;2023-08-12T08:44:15;7.40;;;1.98;;
22435;SDS011;11385;50.822;4.324;2023-08-12T08:46:45;3.83;;;2.33;;
22435;SDS011;11385;50.822;4.324;2023-08-12T08:49:13;4.90;;;1.95;;
22435;SDS011;11385;50.822;4.324;2023-08-12T08:51:42;3.95;;;2.00;;
22435;SDS011;11385;50.822;4.324;2023-08-12T08:54:09;4.83;;;2.22;;
22435;SDS011;11385;50.822;4.324;2023-08-12T08:56:37;4.25;;;1.65;;
22435;SDS011;11385;50.822;4.324;2023-08-12T08:59:04;5.95;;;1.92;;
22435;SDS011;11385;50.822;4.324;2023-08-12T09:01:31;6.40;;;1.80;;
22435;SDS011;11385;50.822;4.324;2023-08-12T09:03:57;5.65;;;1.65;;
22435;SDS011;11385;50.822;4.324;2023-08-12T09:06:25;3.72;;;1.47;;
22435;SDS011;11385;50.822;4.324;2023-08-12T09:08:53;4.78;;;2.00;;
22435;SDS011;11385;50.822;4.324;2023-08-12T09:11:20;4.05;;;1.57;;
22435;SDS011;11385;50.822;4.324;2023-08-12T09:13:47;4.80;;;1.62;;
22435;SDS011;11385;50.822;4.324;2023-08-12T09:16:15;4.47;;;1.80;;
22435;SDS011;11385;50.822;4.324;2023-08-12T09:18:42;6.00;;;1.90;;
22435;SDS011;11385;50.822;4.324;2023-08-12T09:21:10;4.85;;;1.32;;
22435;SDS011;11385;50.822;4.324;2023-08-12T09:23:37;5.03;;;1.52;;
22435;SDS011;11385;50.822;4.324;2023-08-12T09:28:41;5.78;;;1.50;;
22435;SDS011;11385;50.822;4.324;2023-08-12T09:31:12;6.00;;;1.27;;
22435;SDS011;11385;50.822;4.324;2023-08-12T09:33:43;6.72;;;3.62;;
22435;SDS011;11385;50.822;4.324;2023-08-12T09:36:09;5.25;;;1.90;;
22435;SDS011;11385;50.822;4.324;2023-08-12T09:38:36;8.83;;;4.60;;
22435;SDS011;11385;50.822;4.324;2023-08-12T09:41:03;4.45;;;1.27;;
22435;SDS011;11385;50.822;4.324;2023-08-12T09:43:30;4.87;;;1.67;;
22435;SDS011;11385;50.822;4.324;2023-08-12T09:45:58;6.28;;;1.40;;
22435;SDS011;11385;50.822;4.324;2023-08-12T09:48:25;4.35;;;1.75;;
22435;SDS011;11385;50.822;4.324;2023-08-12T09:50:52;6.60;;;1.60;;
22435;SDS011;11385;50.822;4.324;2023-08-12T09:53:21;5.45;;;1.32;;
22435;SDS011;11385;50.822;4.324;2023-08-12T09:55:49;5.15;;;1.40;;
22435;SDS011;11385;50.822;4.324;2023-08-12T09:58:18;5.25;;;1.25;;
22435;SDS011;11385;50.822;4.324;2023-08-12T10:03:16;5.58;;;1.37;;
22435;SDS011;11385;50.822;4.324;2023-08-12T10:05:45;4.70;;;1.32;;
22435;SDS011;11385;50.822;4.324;2023-08-12T10:08:12;7.47;;;2.22;;
22435;SDS011;11385;50.822;4.324;2023-08-12T10:10:40;6.25;;;1.82;;
22435;SDS011;11385;50.822;4.324;2023-08-12T10:13:09;5.85;;;1.50;;
22435;SDS011;11385;50.822;4.324;2023-08-12T10:15:37;5.95;;;1.60;;
22435;SDS011;11385;50.822;4.324;2023-08-12T10:18:04;5.05;;;1.72;;
22435;SDS011;11385;50.822;4.324;2023-08-12T10:20:31;4.37;;;1.20;;
22435;SDS011;11385;50.822;4.324;2023-08-12T10:22:59;5.85;;;1.35;;
22435;SDS011;11385;50.822;4.324;2023-08-12T10:25:30;5.37;;;1.77;;
22435;SDS011;11385;50.822;4.324;2023-08-12T10:28:00;5.62;;;1.82;;
22435;SDS011;11385;50.822;4.324;2023-08-12T10:30:28;5.65;;;1.67;;
22435;SDS011;11385;50.822;4.324;2023-08-12T10:32:56;4.70;;;1.65;;
22435;SDS011;11385;50.822;4.324;2023-08-12T10:35:29;5.75;;;1.45;;
22435;SDS011;11385;50.822;4.324;2023-08-12T10:37:59;6.55;;;1.75;;
22435;SDS011;11385;50.822;4.324;2023-08-12T10:40:25;3.92;;;1.30;;
22435;SDS011;11385;50.822;4.324;2023-08-12T10:42:52;7.90;;;2.12;;
22435;SDS011;11385;50.822;4.324;2023-08-12T10:45:19;3.65;;;1.30;;
22435;SDS011;11385;50.822;4.324;2023-08-12T10:47:48;3.35;;;1.30;;
22435;SDS011;11385;50.822;4.324;2023-08-12T10:52:44;4.97;;;1.30;;
22435;SDS011;11385;50.822;4.324;2023-08-12T10:55:20;5.45;;;1.52;;
22435;SDS011;11385;50.822;4.324;2023-08-12T10:57:51;6.53;;;1.60;;
22435;SDS011;11385;50.822;4.324;2023-08-12T11:00:20;5.65;;;1.90;;
22435;SDS011;11385;50.822;4.324;2023-08-12T11:02:52;6.40;;;1.82;;
22435;SDS011;11385;50.822;4.324;2023-08-12T11:05:20;6.53;;;1.80;;
22435;SDS011;11385;50.822;4.324;2023-08-12T11:07:49;8.83;;;2.08;;
22435;SDS011;11385;50.822;4.324;2023-08-12T11:10:24;4.83;;;1.47;;
22435;SDS011;11385;50.822;4.324;2023-08-12T11:12:53;6.55;;;1.62;;
22435;SDS011;11385;50.822;4.324;2023-08-12T11:18:02;6.03;;;1.62;;
22435;SDS011;11385;50.822;4.324;2023-08-12T11:20:30;7.62;;;1.50;;
22435;SDS011;11385;50.822;4.324;2023-08-12T11:22:58;5.75;;;1.30;;
22435;SDS011;11385;50.822;4.324;2023-08-12T11:25:28;4.47;;;1.35;;
22435;SDS011;11385;50.822;4.324;2023-08-12T11:27:56;7.40;;;1.35;;
22435;SDS011;11385;50.822;4.324;2023-08-12T11:30:24;5.72;;;1.40;;
22435;SDS011;11385;50.822;4.324;2023-08-12T11:32:52;6.25;;;1.40;;
22435;SDS011;11385;50.822;4.324;2023-08-12T11:35:21;4.55;;;1.37;;
22435;SDS011;11385;50.822;4.324;2023-08-12T11:37:49;7.62;;;1.55;;
22435;SDS011;11385;50.822;4.324;2023-08-12T11:40:21;6.87;;;1.22;;
22435;SDS011;11385;50.822;4.324;2023-08-12T11:42:49;6.15;;;1.20;;
22435;SDS011;11385;50.822;4.324;2023-08-12T11:45:18;3.85;;;1.15;;
22435;SDS011;11385;50.822;4.324;2023-08-12T11:47:46;5.92;;;1.30;;
22435;SDS011;11385;50.822;4.324;2023-08-12T11:50:15;5.92;;;1.40;;
22435;SDS011;11385;50.822;4.324;2023-08-12T11:52:42;7.12;;;1.40;;
22435;SDS011;11385;50.822;4.324;2023-08-12T11:55:09;6.25;;;1.17;;
22435;SDS011;11385;50.822;4.324;2023-08-12T11:57:36;6.65;;;1.65;;
22435;SDS011;11385;50.822;4.324;2023-08-12T12:00:05;4.17;;;1.22;;
22435;SDS011;11385;50.822;4.324;2023-08-12T12:02:38;5.90;;;1.42;;
22435;SDS011;11385;50.822;4.324;2023-08-12T12:05:09;6.78;;;1.40;;
22435;SDS011;11385;50.822;4.324;2023-08-12T12:07:36;6.08;;;1.75;;
22435;SDS011;11385;50.822;4.324;2023-08-12T12:10:05;7.10;;;1.30;;
22435;SDS011;11385;50.822;4.324;2023-08-12T12:12:34;7.30;;;1.55;;
22435;SDS011;11385;50.822;4.324;2023-08-12T12:15:01;4.58;;;1.30;;
22435;SDS011;11385;50.822;4.324;2023-08-12T12:17:28;7.87;;;2.50;;
22435;SDS011;11385;50.822;4.324;2023-08-12T12:19:58;8.88;;;2.45;;
22435;SDS011;11385;50.822;4.324;2023-08-12T12:22:26;7.80;;;1.80;;
22435;SDS011;11385;50.822;4.324;2023-08-12T12:24:57;5.33;;;2.08;;
22435;SDS011;11385;50.822;4.324;2023-08-12T12:27:25;7.73;;;2.47;;
22435;SDS011;11385;50.822;4.324;2023-08-12T12:29:53;9.65;;;2.60;;
22435;SDS011;11385;50.822;4.324;2023-08-12T12:32:20;6.25;;;2.10;;
22435;SDS011;11385;50.822;4.324;2023-08-12T12:34:47;6.05;;;2.50;;
22435;SDS011;11385;50.822;4.324;2023-08-12T12:37:14;7.30;;;2.42;;
22435;SDS011;11385;50.822;4.324;2023-08-12T12:39:41;6.12;;;2.15;;
22435;SDS011;11385;50.822;4.324;2023-08-12T12:42:08;4.70;;;2.02;;
22435;SDS011;11385;50.822;4.324;2023-08-12T12:44:35;7.37;;;2.00;;
22435;SDS011;11385;50.822;4.324;2023-08-12T12:47:02;6.80;;;2.58;;
22435;SDS011;11385;50.822;4.324;2023-08-12T12:49:29;8.28;;;3.20;;
22435;SDS011;11385;50.822;4.324;2023-08-12T12:51:56;6.87;;;2.25;;
22435;SDS011;11385;50.822;4.324;2023-08-12T12:54:22;7.03;;;3.17;;
22435;SDS011;11385;50.822;4.324;2023-08-12T12:56:49;12.15;;;7.72;;
22435;SDS011;11385;50.822;4.324;2023-08-12T12:59:16;6.85;;;2.30;;
22435;SDS011;11385;50.822;4.324;2023-08-12T13:01:43;6.67;;;1.75;;
22435;SDS011;11385;50.822;4.324;2023-08-12T13:04:10;6.30;;;1.92;;
22435;SDS011;11385;50.822;4.324;2023-08-12T13:06:37;12.28;;;7.17;;
22435;SDS011;11385;50.822;4.324;2023-08-12T13:09:04;13.78;;;12.25;;
22435;SDS011;11385;50.822;4.324;2023-08-12T13:11:31;9.13;;;5.87;;
22435;SDS011;11385;50.822;4.324;2023-08-12T13:14:00;5.53;;;2.05;;
22435;SDS011;11385;50.822;4.324;2023-08-12T13:16:29;6.90;;;3.87;;
22435;SDS011;11385;50.822;4.324;2023-08-12T13:18:56;13.88;;;6.17;;
22435;SDS011;11385;50.822;4.324;2023-08-12T13:21:25;6.78;;;2.90;;
22435;SDS011;11385;50.822;4.324;2023-08-12T13:23:52;6.08;;;1.55;;
22435;SDS011;11385;50.822;4.324;2023-08-12T13:26:21;6.60;;;3.12;;
22435;SDS011;11385;50.822;4.324;2023-08-12T13:28:48;6.37;;;3.42;;
22435;SDS011;11385;50.822;4.324;2023-08-12T13:31:14;8.10;;;3.05;;
22435;SDS011;11385;50.822;4.324;2023-08-12T13:33:41;7.08;;;2.45;;
22435;SDS011;11385;50.822;4.324;2023-08-12T13:36:08;4.92;;;1.75;;
22435;SDS011;11385;50.822;4.324;2023-08-12T13:38:34;5.72;;;1.67;;
22435;SDS011;11385;50.822;4.324;2023-08-12T13:41:01;10.60;;;6.10;;
22435;SDS011;11385;50.822;4.324;2023-08-12T13:43:28;8.13;;;1.95;;
22435;SDS011;11385;50.822;4.324;2023-08-12T13:45:55;3.35;;;1.35;;
22435;SDS011;11385;50.822;4.324;2023-08-12T13:48:22;5.78;;;1.60;;
22435;SDS011;11385;50.822;4.324;2023-08-12T13:50:49;4.97;;;1.47;;
22435;SDS011;11385;50.822;4.324;2023-08-12T13:53:18;6.70;;;1.55;;
22435;SDS011;11385;50.822;4.324;2023-08-12T13:55:45;5.03;;;1.40;;
22435;SDS011;11385;50.822;4.324;2023-08-12T13:58:11;5.00;;;1.70;;
22435;SDS011;11385;50.822;4.324;2023-08-12T14:00:38;5.53;;;1.52;;
22435;SDS011;11385;50.822;4.324;2023-08-12T14:03:05;5.75;;;1.70;;
22435;SDS011;11385;50.822;4.324;2023-08-12T14:05:31;12.65;;;7.28;;
22435;SDS011;11385;50.822;4.324;2023-08-12T14:07:58;7.17;;;2.47;;
22435;SDS011;11385;50.822;4.324;2023-08-12T14:10:25;6.87;;;1.30;;
22435;SDS011;11385;50.822;4.324;2023-08-12T14:12:51;5.80;;;1.90;;
22435;SDS011;11385;50.822;4.324;2023-08-12T14:15:18;8.90;;;1.70;;
22435;SDS011;11385;50.822;4.324;2023-08-12T14:17:44;7.97;;;2.33;;
22435;SDS011;11385;50.822;4.324;2023-08-12T14:20:11;6.55;;;1.92;;
22435;SDS011;11385;50.822;4.324;2023-08-12T14:22:40;5.78;;;1.60;;
22435;SDS011;11385;50.822;4.324;2023-08-12T14:25:09;4.67;;;1.30;;
22435;SDS011;11385;50.822;4.324;2023-08-12T14:27:36;5.62;;;1.70;;
22435;SDS011;11385;50.822;4.324;2023-08-12T14:30:03;5.80;;;1.27;;
22435;SDS011;11385;50.822;4.324;2023-08-12T14:32:30;4.53;;;1.32;;
22435;SDS011;11385;50.822;4.324;2023-08-12T14:34:57;6.62;;;1.72;;
22435;SDS011;11385;50.822;4.324;2023-08-12T14:37:23;5.70;;;1.60;;
22435;SDS011;11385;50.822;4.324;2023-08-12T14:39:51;5.40;;;1.65;;
22435;SDS011;11385;50.822;4.324;2023-08-12T14:42:18;8.18;;;1.90;;
22435;SDS011;11385;50.822;4.324;2023-08-12T14:44:45;10.00;;;3.22;;
22435;SDS011;11385;50.822;4.324;2023-08-12T14:47:12;3.67;;;1.10;;
22435;SDS011;11385;50.822;4.324;2023-08-12T14:49:38;6.47;;;1.75;;